Time;durP1;ratioP1;P1;durP2;ratioP2;P2;SDS_P1;SDS_P2;PMS_P1;PMS_P2;Temp;Humidity;BMP_temperature;BMP_pressure;BME280_temperature;BME280_humidity;BME280_pressure;Samples;Min_cycle;Max_cycle;Signal;HPM_P1;HPM_P2
2021/03/31 00:02:12;;;;;;;;;;;;;;;8.40;74.81;102527.53;5109640;28;19918;-72
2021/03/31 00:04:38;;;;;;;;;;;;;;;8.28;75.26;102528.47;5109709;28;19911;-74
2021/03/31 00:07:06;;;;;;;;;;;;;;;8.29;75.15;102519.97;5109869;28;20326;-72
2021/03/31 00:09:32;;;;;;;;;;;;;;;8.29;76.74;102519.97;5088840;28;19993;-74
2021/03/31 00:11:57;;;;;;;;;;;;;;;8.29;76.26;102527.66;5089272;28;19912;-75
2021/03/31 00:14:22;;;;;;;;;;;;;;;8.24;77.48;102521.38;5089898;28;19912;-73
2021/03/31 00:16:47;;;;;;;;;;;;;;;8.23;76.87;102522.19;5089451;28;19912;-75
2021/03/31 00:19:12;;;;;;;;;;;;;;;8.15;77.12;102523.41;5089041;28;19912;-74
2021/03/31 00:21:38;;;;;;;;;;;;;;;8.13;76.72;102523.31;5089201;28;19972;-75
2021/03/31 00:24:03;;;;;;;;;;;;;;;8.44;75.63;102518.34;5090652;28;19918;-75
2021/03/31 00:26:28;;;;;;;;;;;;;;;8.81;72.83;102508.59;5090596;28;19912;-75
2021/03/31 00:28:53;;;;;;;;;;;;;;;9.13;70.85;102501.84;5089322;28;20387;-75
2021/03/31 00:31:19;;;;;;;;;;;;;;;9.32;71.22;102505.50;5088856;28;19942;-75
2021/03/31 00:33:44;;;;;;;;;;;;;;;9.43;69.78;102508.66;5089284;28;19919;-76
2021/03/31 00:36:09;;;;;;;;;;;;;;;9.36;71.61;102503.97;5089134;28;19920;-74
2021/03/31 00:38:35;;;;;;;;;;;;;;;9.15;72.06;102506.25;5089113;28;19930;-75
2021/03/31 00:41:00;;;;;;;;;;;;;;;9.19;71.50;102504.75;5090155;28;19918;-75
2021/03/31 00:43:26;;;;;;;;;;;;;;;9.27;70.00;102496.66;5089904;28;20393;-72
2021/03/31 00:45:51;;;;;;;;;;;;;;;9.36;70.06;102494.59;5090271;28;19950;-75
2021/03/31 00:48:17;;;;;;;;;;;;;;;9.33;70.21;102491.00;5090014;28;19912;-74
2021/03/31 00:50:43;;;;;;;;;;;;;;;9.41;69.14;102486.28;5088564;28;20365;-74
2021/03/31 00:53:09;;;;;;;;;;;;;;;9.46;70.29;102482.31;5089766;28;19911;-75
2021/03/31 00:55:34;;;;;;;;;;;;;;;9.41;70.25;102470.88;5090067;28;19973;-72
2021/03/31 00:57:59;;;;;;;;;;;;;;;9.33;70.48;102476.47;5086290;28;19927;-72
2021/03/31 01:00:25;;;;;;;;;;;;;;;9.04;72.42;102471.44;5089753;28;20002;-73
2021/03/31 01:02:50;;;;;;;;;;;;;;;8.72;72.97;102474.72;5088530;28;19912;-75
2021/03/31 01:05:20;;;;;;;;;;;;;;;8.39;75.41;102477.09;5089899;28;19920;-76
2021/03/31 01:07:46;;;;;;;;;;;;;;;8.19;75.98;102466.47;5090069;28;19919;-75
2021/03/31 01:10:12;;;;;;;;;;;;;;;8.09;76.35;102460.78;5088971;28;20393;-74
2021/03/31 01:12:43;;;;;;;;;;;;;;;8.08;75.88;102459.03;5088856;28;19912;-75
2021/03/31 01:15:16;;;;;;;;;;;;;;;8.11;74.69;102459.19;5088364;28;19991;-72
2021/03/31 01:17:45;;;;;;;;;;;;;;;8.11;74.22;102454.06;5088541;28;19965;-75
2021/03/31 01:20:30;;;;;;;;;;;;;;;8.07;73.89;102457.25;5088501;28;19919;-75
2021/03/31 01:22:55;;;;;;;;;;;;;;;7.98;75.13;102446.47;5096766;28;19919;-75
2021/03/31 01:25:37;;;;;;;;;;;;;;;7.89;75.29;102447.63;5108812;28;19916;-74
2021/03/31 01:28:22;;;;;;;;;;;;;;;7.83;75.36;102445.56;5109893;28;19912;-72
2021/03/31 01:31:06;;;;;;;;;;;;;;;7.79;75.39;102443.59;5108474;28;19960;-76
2021/03/31 01:33:44;;;;;;;;;;;;;;;7.73;75.76;102445.78;5108870;28;20185;-76
2021/03/31 01:36:15;;;;;;;;;;;;;;;7.65;76.10;102439.31;5109867;28;20381;-72
2021/03/31 01:38:42;;;;;;;;;;;;;;;7.62;75.84;102444.25;5108806;28;20502;-75
2021/03/31 01:41:09;;;;;;;;;;;;;;;7.59;75.77;102438.97;5093854;28;19920;-74
2021/03/31 01:43:34;;;;;;;;;;;;;;;7.57;75.66;102440.53;5089223;28;19912;-74
2021/03/31 01:46:00;;;;;;;;;;;;;;;7.49;77.42;102437.53;5088385;28;19912;-72
2021/03/31 01:48:28;;;;;;;;;;;;;;;7.30;79.12;102445.72;5088048;28;19912;-74
2021/03/31 01:50:58;;;;;;;;;;;;;;;7.19;79.46;102436.50;5089268;28;20424;-75
2021/03/31 01:53:24;;;;;;;;;;;;;;;7.11;80.95;102437.66;5088341;28;19957;-74
2021/03/31 01:55:53;;;;;;;;;;;;;;;7.15;82.03;102439.63;5089598;28;19912;-72
2021/03/31 01:58:20;;;;;;;;;;;;;;;7.27;80.35;102430.19;5088212;28;19989;-75
2021/03/31 02:00:45;;;;;;;;;;;;;;;7.43;80.94;102425.22;5089279;28;19912;-75
2021/03/31 02:03:13;;;;;;;;;;;;;;;7.55;81.95;102430.22;5090016;28;19916;-75
2021/03/31 02:05:38;;;;;;;;;;;;;;;7.55;79.72;102414.88;5093282;28;19918;-74
2021/03/31 02:08:05;;;;;;;;;;;;;;;7.53;77.67;102419.00;5091339;28;19912;-75
2021/03/31 02:10:30;;;;;;;;;;;;;;;7.48;78.18;102418.75;5092632;28;19962;-75
2021/03/31 02:12:57;;;;;;;;;;;;;;;7.37;77.99;102421.41;5093543;28;19912;-72
2021/03/31 02:15:25;;;;;;;;;;;;;;;7.29;78.84;102413.28;5093277;28;20300;-75
2021/03/31 02:17:50;;;;;;;;;;;;;;;7.22;79.04;102411.13;5091603;28;19912;-74
2021/03/31 02:20:19;;;;;;;;;;;;;;;7.23;78.45;102409.47;5091726;28;19973;-74
2021/03/31 02:22:45;;;;;;;;;;;;;;;7.24;78.21;102403.56;5103042;28;20364;-73
2021/03/31 02:25:11;;;;;;;;;;;;;;;7.23;77.73;102402.66;5111843;28;19961;-75
2021/03/31 02:27:37;;;;;;;;;;;;;;;7.20;77.81;102399.94;5111943;28;20339;-74
2021/03/31 02:30:04;;;;;;;;;;;;;;;7.17;77.92;102402.28;5113070;28;19916;-75
2021/03/31 02:32:30;;;;;;;;;;;;;;;7.15;77.22;102398.72;5111490;28;19912;-74
2021/03/31 02:34:56;;;;;;;;;;;;;;;7.11;77.10;102400.22;5112977;28;20389;-75
2021/03/31 02:37:22;;;;;;;;;;;;;;;7.09;77.99;102399.25;5111764;28;20000;-75
2021/03/31 02:39:48;;;;;;;;;;;;;;;7.09;79.07;102396.69;5112721;28;19964;-75
2021/03/31 02:42:15;;;;;;;;;;;;;;;7.05;78.15;102396.41;5111474;28;19927;-73
2021/03/31 02:44:42;;;;;;;;;;;;;;;7.03;77.37;102390.31;5112146;28;19938;-74
2021/03/31 02:47:09;;;;;;;;;;;;;;;7.01;77.36;102389.34;5111309;28;19918;-74
2021/03/31 02:49:35;;;;;;;;;;;;;;;6.98;78.24;102384.91;5111534;28;19942;-75
2021/03/31 02:52:01;;;;;;;;;;;;;;;6.98;77.48;102384.03;5102124;28;19911;-73
2021/03/31 02:54:27;;;;;;;;;;;;;;;6.99;78.18;102378.13;5091052;28;20379;-75
2021/03/31 02:56:53;;;;;;;;;;;;;;;6.96;77.41;102378.84;5091105;28;19994;-75
2021/03/31 02:59:18;;;;;;;;;;;;;;;6.93;78.26;102373.53;5090889;28;20003;-73
2021/03/31 03:01:44;;;;;;;;;;;;;;;7.06;79.02;102378.59;5108138;28;19911;-74
2021/03/31 03:04:09;;;;;;;;;;;;;;;7.40;78.29;102371.34;5112492;28;19911;-75
2021/03/31 03:06:35;;;;;;;;;;;;;;;7.30;77.85;102374.13;5111159;28;19971;-75
2021/03/31 03:09:03;;;;;;;;;;;;;;;7.17;78.94;102366.53;5109404;28;20304;-72
2021/03/31 03:11:29;;;;;;;;;;;;;;;7.11;78.57;102366.13;5088993;28;19916;-72
2021/03/31 03:13:54;;;;;;;;;;;;;;;7.03;77.69;102367.31;5091113;28;20381;-73
2021/03/31 03:16:20;;;;;;;;;;;;;;;7.02;79.35;102363.00;5093242;28;19919;-74
2021/03/31 03:18:45;;;;;;;;;;;;;;;7.07;80.79;102359.06;5096829;28;19912;-73
2021/03/31 03:21:11;;;;;;;;;;;;;;;6.99;80.37;102362.81;5091528;28;19924;-75
2021/03/31 03:23:37;;;;;;;;;;;;;;;6.90;80.32;102360.56;5106225;28;19956;-74
2021/03/31 03:26:03;;;;;;;;;;;;;;;6.89;82.29;102363.03;5112034;28;19999;-75
2021/03/31 03:28:29;;;;;;;;;;;;;;;6.94;82.24;102361.66;5110803;28;19918;-75
2021/03/31 03:30:56;;;;;;;;;;;;;;;7.07;84.21;102359.94;5110008;28;19916;-74
2021/03/31 03:33:21;;;;;;;;;;;;;;;7.20;86.48;102351.38;5110592;28;19915;-75
2021/03/31 03:35:47;;;;;;;;;;;;;;;7.17;84.51;102348.63;5110519;28;20300;-76
2021/03/31 03:38:13;;;;;;;;;;;;;;;7.09;82.67;102349.81;5110519;28;20419;-75
2021/03/31 03:40:38;;;;;;;;;;;;;;;7.20;84.57;102342.81;5111529;28;20002;-74
2021/03/31 03:43:03;;;;;;;;;;;;;;;7.36;86.54;102348.94;5103309;28;20006;-72
2021/03/31 03:45:29;;;;;;;;;;;;;;;7.33;85.92;102342.75;5090091;28;19912;-75
2021/03/31 03:47:55;;;;;;;;;;;;;;;7.22;88.16;102342.13;5089831;28;19991;-74
2021/03/31 03:50:20;;;;;;;;;;;;;;;7.29;85.88;102346.81;5104647;28;20184;-74
2021/03/31 03:52:50;;;;;;;;;;;;;;;7.18;84.18;102343.63;5111363;28;19912;-74
2021/03/31 03:55:19;;;;;;;;;;;;;;;7.10;86.91;102346.47;5110186;28;19957;-74
2021/03/31 03:57:44;;;;;;;;;;;;;;;7.02;89.11;102343.44;5111476;28;19916;-74
2021/03/31 04:00:17;;;;;;;;;;;;;;;7.08;90.28;102350.59;5111148;28;19964;-75
2021/03/31 04:02:42;;;;;;;;;;;;;;;6.98;88.00;102338.94;5109657;28;19911;-74
2021/03/31 04:05:08;;;;;;;;;;;;;;;6.78;85.81;102340.22;5109891;28;19964;-75
2021/03/31 04:07:33;;;;;;;;;;;;;;;6.69;85.48;102342.22;5108757;28;19912;-76
2021/03/31 04:09:59;;;;;;;;;;;;;;;6.62;85.36;102342.63;5090639;28;19924;-75
2021/03/31 04:12:25;;;;;;;;;;;;;;;6.64;87.28;102329.94;5089286;28;20008;-75
2021/03/31 04:14:51;;;;;;;;;;;;;;;6.50;87.27;102329.06;5089886;28;19961;-75
2021/03/31 04:17:17;;;;;;;;;;;;;;;6.50;87.43;102321.41;5089512;28;19923;-74
2021/03/31 04:19:43;;;;;;;;;;;;;;;6.48;86.53;102328.06;5090566;28;19912;-74
2021/03/31 04:22:10;;;;;;;;;;;;;;;6.62;88.27;102329.84;5090302;28;20014;-74
2021/03/31 04:24:35;;;;;;;;;;;;;;;6.51;85.89;102328.31;5090695;28;19912;-75
2021/03/31 04:27:01;;;;;;;;;;;;;;;6.39;84.66;102330.03;5089680;28;19922;-76
2021/03/31 04:29:27;;;;;;;;;;;;;;;6.26;84.37;102319.84;5090512;28;20046;-75
2021/03/31 04:31:52;;;;;;;;;;;;;;;6.18;84.49;102324.47;5095846;28;20388;-76
2021/03/31 04:34:18;;;;;;;;;;;;;;;6.11;86.01;102323.16;5110677;28;19990;-75
2021/03/31 04:36:43;;;;;;;;;;;;;;;6.07;85.50;102328.84;5110633;28;19918;-74
2021/03/31 04:39:08;;;;;;;;;;;;;;;6.05;84.68;102330.41;5109425;28;19912;-76
2021/03/31 04:41:34;;;;;;;;;;;;;;;5.98;84.46;102330.81;5110379;28;19911;-76
2021/03/31 04:43:59;;;;;;;;;;;;;;;5.93;84.20;102325.41;5111116;28;19959;-75
2021/03/31 04:46:24;;;;;;;;;;;;;;;5.88;84.67;102331.84;5104402;28;20002;-75
2021/03/31 04:48:49;;;;;;;;;;;;;;;5.86;85.06;102329.97;5090245;28;19955;-75
2021/03/31 04:51:14;;;;;;;;;;;;;;;5.89;85.19;102325.06;5098324;28;19915;-75
2021/03/31 04:53:40;;;;;;;;;;;;;;;5.91;85.05;102326.09;5100514;28;19912;-74
2021/03/31 04:56:06;;;;;;;;;;;;;;;5.93;84.90;102321.97;5088645;28;19980;-75
2021/03/31 04:58:31;;;;;;;;;;;;;;;5.96;85.23;102321.28;5091307;28;20363;-75
2021/03/31 05:00:58;;;;;;;;;;;;;;;5.95;84.97;102317.84;5089813;28;19919;-75
2021/03/31 05:03:24;;;;;;;;;;;;;;;6.08;87.85;102315.31;5089064;28;20300;-75
2021/03/31 05:05:49;;;;;;;;;;;;;;;6.18;89.04;102311.72;5089937;28;19919;-75
2021/03/31 05:08:14;;;;;;;;;;;;;;;6.18;88.65;102319.34;5089990;28;19950;-75
2021/03/31 05:10:39;;;;;;;;;;;;;;;6.20;87.95;102316.13;5088661;28;19946;-74
2021/03/31 05:13:04;;;;;;;;;;;;;;;6.21;87.74;102312.78;5090201;28;19912;-75
2021/03/31 05:15:30;;;;;;;;;;;;;;;6.15;86.34;102317.47;5090057;28;19962;-74
2021/03/31 05:17:55;;;;;;;;;;;;;;;6.09;84.90;102316.19;5089852;28;20403;-75
2021/03/31 05:20:20;;;;;;;;;;;;;;;6.03;83.50;102310.69;5091190;28;19916;-75
2021/03/31 05:22:46;;;;;;;;;;;;;;;5.97;83.22;102311.19;5101731;28;19918;-74
2021/03/31 05:25:11;;;;;;;;;;;;;;;5.97;85.02;102311.19;5110176;28;19915;-75
2021/03/31 05:27:37;;;;;;;;;;;;;;;5.96;85.22;102311.97;5108725;28;19994;-75
2021/03/31 05:30:06;;;;;;;;;;;;;;;5.97;84.67;102311.19;5109920;28;19916;-75
2021/03/31 05:32:32;;;;;;;;;;;;;;;6.51;89.61;102308.75;5109707;28;19916;-74
2021/03/31 05:34:57;;;;;;;;;;;;;;;6.68;91.33;102304.69;5104404;28;19926;-74
2021/03/31 05:37:22;;;;;;;;;;;;;;;6.73;90.65;102298.19;5088269;28;19918;-75
2021/03/31 05:39:47;;;;;;;;;;;;;;;6.76;90.79;102300.06;5092927;28;19912;-75
2021/03/31 05:42:13;;;;;;;;;;;;;;;6.83;90.23;102299.69;5093399;28;19916;-75
2021/03/31 05:44:38;;;;;;;;;;;;;;;6.91;89.85;102300.16;5094410;28;20378;-76
2021/03/31 05:47:04;;;;;;;;;;;;;;;7.06;90.59;102293.41;5098212;28;19911;-74
2021/03/31 05:49:30;;;;;;;;;;;;;;;7.01;88.08;102303.34;5114900;28;19935;-75
2021/03/31 05:51:55;;;;;;;;;;;;;;;7.17;87.59;102294.97;5101214;28;19912;-76
2021/03/31 05:54:21;;;;;;;;;;;;;;;7.42;86.89;102298.19;5092046;28;20369;-75
2021/03/31 05:56:46;;;;;;;;;;;;;;;7.82;83.87;102290.31;5092131;28;20046;-76
2021/03/31 05:59:13;;;;;;;;;;;;;;;8.08;81.88;102287.53;5092237;28;20068;-77
2021/03/31 06:01:39;;;;;;;;;;;;;;;8.55;81.48;102284.25;5104520;28;20338;-78
2021/03/31 06:04:04;;;;;;;;;;;;;;;8.74;79.08;102280.97;5091786;28;20365;-76
2021/03/31 06:06:30;;;;;;;;;;;;;;;8.91;79.44;102276.78;5094597;28;19919;-75
2021/03/31 06:08:55;;;;;;;;;;;;;;;9.45;78.87;102272.78;5092042;28;20534;-76
2021/03/31 06:11:21;;;;;;;;;;;;;;;9.74;75.31;102275.09;5093873;28;19950;-73
2021/03/31 06:13:54;;;;;;;;;;;;;;;10.35;73.75;102272.97;5094568;28;19944;-77
2021/03/31 06:16:29;;;;;;;;;;;;;;;10.65;73.82;102273.53;5100472;28;19912;-76
2021/03/31 06:18:54;;;;;;;;;;;;;;;10.76;72.70;102281.75;5102372;28;19999;-77
2021/03/31 06:21:19;;;;;;;;;;;;;;;11.59;70.25;102271.72;5103388;28;19954;-76
2021/03/31 06:24:10;;;;;;;;;;;;;;;12.36;68.72;102281.81;5112120;28;19961;-76
2021/03/31 06:26:39;;;;;;;;;;;;;;;12.02;67.25;102281.25;5093104;28;19942;-77
2021/03/31 06:29:04;;;;;;;;;;;;;;;12.01;68.33;102284.63;5094113;28;19912;-77
2021/03/31 06:31:31;;;;;;;;;;;;;;;11.99;67.64;102281.13;5092540;28;20312;-75
2021/03/31 06:34:00;;;;;;;;;;;;;;;11.91;67.94;102280.81;5093913;28;19998;-77
2021/03/31 06:36:36;;;;;;;;;;;;;;;12.16;67.03;102272.41;5093802;28;19912;-76
2021/03/31 06:39:14;;;;;;;;;;;;;;;12.41;65.91;102269.97;5094048;28;19922;-77
2021/03/31 06:41:48;;;;;;;;;;;;;;;12.84;65.36;102265.56;5092390;28;19912;-76
2021/03/31 06:44:25;;;;;;;;;;;;;;;12.08;64.60;102266.06;5092560;28;19922;-77
2021/03/31 06:47:04;;;;;;;;;;;;;;;11.72;66.27;102268.84;5092481;28;19912;-76
2021/03/31 06:49:29;;;;;;;;;;;;;;;11.95;65.79;102266.38;5093468;28;19973;-76
2021/03/31 06:52:01;;;;;;;;;;;;;;;13.04;64.65;102265.47;5091367;28;19916;-76
2021/03/31 06:54:26;;;;;;;;;;;;;;;13.53;59.71;102264.66;5092425;28;19970;-76
2021/03/31 06:56:56;;;;;;;;;;;;;;;13.04;62.56;102267.19;5090742;28;20617;-77
2021/03/31 06:59:27;;;;;;;;;;;;;;;13.69;61.29;102264.38;5092531;28;19920;-76
2021/03/31 07:01:53;;;;;;;;;;;;;;;13.61;59.80;102260.63;5089543;28;19918;-77
2021/03/31 07:04:18;;;;;;;;;;;;;;;13.95;59.14;102266.91;5093428;28;19998;-77
2021/03/31 07:06:57;;;;;;;;;;;;;;;14.79;57.10;102265.25;5110102;28;19918;-74
2021/03/31 07:09:22;;;;;;;;;;;;;;;14.17;54.94;102269.34;5108735;28;20349;-76
2021/03/31 07:11:47;;;;;;;;;;;;;;;14.44;54.23;102264.22;5088870;28;19970;-73
2021/03/31 07:14:13;;;;;;;;;;;;;;;14.80;53.50;102267.00;5090645;28;19938;-74
2021/03/31 07:16:40;;;;;;;;;;;;;;;15.33;52.46;102267.66;5092342;28;19911;-75
2021/03/31 07:19:06;;;;;;;;;;;;;;;15.73;52.83;102264.41;5092162;28;20381;-76
2021/03/31 07:21:31;;;;;;;;;;;;;;;16.37;51.58;102262.47;5091826;28;20053;-76
2021/03/31 07:23:57;;;;;;;;;;;;;;;15.95;53.69;102264.94;5090579;28;19912;-76
2021/03/31 07:26:23;;;;;;;;;;;;;;;15.97;53.85;102258.97;5092222;28;19938;-75
2021/03/31 07:28:49;;;;;;;;;;;;;;;16.87;51.50;102257.50;5091817;28;19912;-76
2021/03/31 07:31:20;;;;;;;;;;;;;;;17.42;49.87;102254.28;5090209;28;19920;-75
2021/03/31 07:33:48;;;;;;;;;;;;;;;17.71;50.24;102258.28;5097584;28;19912;-77
2021/03/31 07:36:14;;;;;;;;;;;;;;;17.32;48.67;102253.25;5090236;28;19999;-76
2021/03/31 07:38:39;;;;;;;;;;;;;;;18.06;52.04;102259.72;5091523;28;20000;-74
2021/03/31 07:41:05;;;;;;;;;;;;;;;17.96;47.90;102263.91;5087657;28;19912;-76
2021/03/31 07:43:34;;;;;;;;;;;;;;;17.79;49.66;102257.53;5091571;28;20356;-76
2021/03/31 07:46:06;;;;;;;;;;;;;;;16.80;51.19;102265.19;5091801;28;20436;-76
2021/03/31 07:48:31;;;;;;;;;;;;;;;16.96;52.99;102262.91;5091718;28;19922;-76
2021/03/31 07:50:57;;;;;;;;;;;;;;;18.07;50.63;102261.47;5089957;28;20372;-76
2021/03/31 07:53:23;;;;;;;;;;;;;;;18.59;50.05;102263.09;5089034;28;20431;-76
2021/03/31 07:55:49;;;;;;;;;;;;;;;18.27;49.83;102265.25;5091389;28;19920;-76
2021/03/31 07:58:19;;;;;;;;;;;;;;;17.79;52.17;102265.34;5089694;28;20347;-76
2021/03/31 08:00:45;;;;;;;;;;;;;;;19.27;50.62;102263.06;5088859;28;20003;-75
2021/03/31 08:03:18;;;;;;;;;;;;;;;20.33;48.39;102254.41;5081773;28;19996;-76
2021/03/31 08:06:00;;;;;;;;;;;;;;;19.64;46.83;102261.75;5089556;28;19920;-76
2021/03/31 08:08:25;;;;;;;;;;;;;;;20.20;45.19;102259.56;5091132;28;19938;-75
2021/03/31 08:10:50;;;;;;;;;;;;;;;20.59;45.00;102254.59;5089715;28;19920;-76
2021/03/31 08:13:25;;;;;;;;;;;;;;;21.05;44.04;102247.81;5089841;28;19931;-76
2021/03/31 08:15:50;;;;;;;;;;;;;;;21.19;42.56;102250.47;5091154;28;19922;-76
2021/03/31 08:18:15;;;;;;;;;;;;;;;21.43;44.52;102255.75;5091709;28;19915;-76
2021/03/31 08:20:40;;;;;;;;;;;;;;;22.21;41.85;102247.94;5090726;28;19947;-76
2021/03/31 08:23:05;;;;;;;;;;;;;;;22.22;40.48;102250.53;5089685;28;19919;-76
2021/03/31 08:25:31;;;;;;;;;;;;;;;22.79;38.18;102250.38;5101789;28;19976;-76
2021/03/31 08:28:04;;;;;;;;;;;;;;;22.67;39.42;102252.13;5104715;28;20002;-76
2021/03/31 08:30:30;;;;;;;;;;;;;;;24.18;33.83;102243.25;5105183;28;19955;-75
2021/03/31 08:32:56;;;;;;;;;;;;;;;25.55;33.42;102245.00;5111754;28;19981;-77
2021/03/31 08:35:23;;;;;;;;;;;;;;;26.64;30.18;102240.38;5112107;28;19972;-76
2021/03/31 08:37:49;;;;;;;;;;;;;;;26.60;29.65;102240.47;5112099;28;19968;-76
2021/03/31 08:40:15;;;;;;;;;;;;;;;27.33;29.71;102240.66;5110661;28;20018;-76
2021/03/31 08:42:47;;;;;;;;;;;;;;;27.54;28.66;102240.13;5110382;28;19946;-77
2021/03/31 08:45:27;;;;;;;;;;;;;;;27.74;29.67;102243.16;5111801;28;20326;-77
2021/03/31 08:47:53;;;;;;;;;;;;;;;28.23;28.96;102235.69;5111822;28;19912;-77
2021/03/31 08:50:23;;;;;;;;;;;;;;;28.39;27.26;102237.91;5111746;28;20446;-76
2021/03/31 08:52:56;;;;;;;;;;;;;;;28.77;25.54;102233.28;5111795;28;20518;-76
2021/03/31 08:55:21;;;;;;;;;;;;;;;28.69;24.62;102230.00;5110417;28;19915;-75
2021/03/31 08:57:47;;;;;;;;;;;;;;;26.07;27.27;102236.25;5111749;28;19911;-76
2021/03/31 09:00:13;;;;;;;;;;;;;;;28.03;28.27;102221.28;5111451;28;19911;-76
2021/03/31 09:02:41;;;;;;;;;;;;;;;29.17;27.01;102224.13;5111399;28;19957;-77
2021/03/31 09:05:07;;;;;;;;;;;;;;;29.65;25.81;102225.19;5111627;28;20373;-76
2021/03/31 09:07:32;;;;;;;;;;;;;;;29.91;25.19;102218.97;5095751;28;19961;-76
2021/03/31 09:09:58;;;;;;;;;;;;;;;30.33;23.37;102221.03;5089912;28;19916;-76
2021/03/31 09:12:25;;;;;;;;;;;;;;;30.06;24.76;102214.09;5090940;28;19912;-76
2021/03/31 09:14:56;;;;;;;;;;;;;;;29.51;23.67;102216.84;5090621;28;19983;-76
2021/03/31 09:17:25;;;;;;;;;;;;;;;29.34;25.87;102209.44;5091227;28;19916;-76
2021/03/31 09:19:52;;;;;;;;;;;;;;;30.12;25.14;102204.13;5089884;28;19912;-76
2021/03/31 09:22:18;;;;;;;;;;;;;;;30.71;23.67;102209.00;5090810;28;19918;-76
2021/03/31 09:24:44;;;;;;;;;;;;;;;29.48;24.21;102205.47;5091076;28;20376;-76
2021/03/31 09:27:10;;;;;;;;;;;;;;;28.99;24.19;102207.06;5105328;28;19956;-76
2021/03/31 09:29:37;;;;;;;;;;;;;;;27.68;26.00;102206.38;5110044;28;20533;-76
2021/03/31 09:32:03;;;;;;;;;;;;;;;29.07;26.51;102211.19;5109611;28;20060;-76
2021/03/31 09:34:28;;;;;;;;;;;;;;;27.48;26.10;102214.75;5111350;28;19916;-76
2021/03/31 09:37:03;;;;;;;;;;;;;;;27.96;25.96;102205.59;5111253;28;20401;-74
2021/03/31 09:39:47;;;;;;;;;;;;;;;29.54;25.58;102214.06;5110092;28;19962;-76
2021/03/31 09:42:23;;;;;;;;;;;;;;;30.71;24.09;102214.31;5111180;28;20380;-76
2021/03/31 09:44:50;;;;;;;;;;;;;;;30.82;22.73;102217.41;5111100;28;19911;-76
2021/03/31 09:47:16;;;;;;;;;;;;;;;28.26;25.33;102214.50;5111244;28;19918;-75
2021/03/31 09:49:43;;;;;;;;;;;;;;;29.75;25.09;102212.50;5109947;28;19915;-76
2021/03/31 09:52:08;;;;;;;;;;;;;;;30.78;24.01;102206.97;5110794;28;19919;-74
2021/03/31 09:54:33;;;;;;;;;;;;;;;27.41;25.41;102207.88;5089386;28;19919;-76
2021/03/31 09:56:59;;;;;;;;;;;;;;;26.21;27.03;102208.72;5090827;28;19916;-75
2021/03/31 09:59:25;;;;;;;;;;;;;;;25.86;26.94;102201.50;5089423;28;19912;-75
2021/03/31 10:01:50;;;;;;;;;;;;;;;25.70;26.88;102200.06;5089173;28;20002;-75
2021/03/31 10:04:16;;;;;;;;;;;;;;;25.92;27.22;102200.50;5090461;28;19911;-74
2021/03/31 10:06:41;;;;;;;;;;;;;;;27.24;28.31;102205.66;5090773;28;19961;-76
2021/03/31 10:09:16;;;;;;;;;;;;;;;29.25;25.61;102204.41;5090667;28;19989;-74
2021/03/31 10:11:42;;;;;;;;;;;;;;;27.94;25.19;102196.84;5089067;28;20401;-75
2021/03/31 10:14:28;;;;;;;;;;;;;;;28.81;23.36;102197.88;5090637;28;19955;-76
2021/03/31 10:16:53;;;;;;;;;;;;;;;27.57;25.99;102203.06;5090397;28;19912;-76
2021/03/31 10:19:18;;;;;;;;;;;;;;;28.64;23.97;102200.19;5089234;28;19935;-74
2021/03/31 10:21:44;;;;;;;;;;;;;;;28.29;25.06;102202.06;5090145;28;19911;-75
2021/03/31 10:24:11;;;;;;;;;;;;;;;26.90;27.01;102204.66;5089211;28;19912;-75
2021/03/31 10:26:37;;;;;;;;;;;;;;;25.12;27.95;102206.22;5092992;28;20010;-75
2021/03/31 10:29:06;;;;;;;;;;;;;;;26.32;29.27;102196.19;5094188;28;19986;-76
2021/03/31 10:31:35;;;;;;;;;;;;;;;29.13;23.14;102189.81;5090726;28;20364;-75
2021/03/31 10:34:01;;;;;;;;;;;;;;;30.42;23.78;102185.34;5091416;28;19912;-76
2021/03/31 10:39:42;;;;;;;;;;;;;;;30.34;20.58;102186.50;5092969;28;19912;-75
2021/03/31 10:49:51;;;;;;;;;;;;;;;31.19;21.93;102178.78;5092525;28;19919;-75
2021/03/31 10:52:21;;;;;;;;;;;;;;;30.68;21.14;102182.59;5096642;28;19918;-75
2021/03/31 10:54:46;;;;;;;;;;;;;;;28.78;22.66;102176.81;5111340;28;19973;-76
2021/03/31 10:57:12;;;;;;;;;;;;;;;30.75;22.88;102176.13;5111287;28;19911;-77
2021/03/31 10:59:37;;;;;;;;;;;;;;;31.71;23.21;102171.28;5110118;28;19919;-77
2021/03/31 11:02:03;;;;;;;;;;;;;;;32.38;20.79;102171.78;5110959;28;19923;-76
2021/03/31 11:04:28;;;;;;;;;;;;;;;32.78;20.24;102168.13;5111771;27;20364;-77
2021/03/31 11:06:53;;;;;;;;;;;;;;;32.28;20.23;102164.31;5113089;28;19942;-77
2021/03/31 11:09:19;;;;;;;;;;;;;;;28.60;22.51;102157.06;5111612;28;19919;-76
2021/03/31 11:11:44;;;;;;;;;;;;;;;31.20;23.24;102164.56;5112655;28;19915;-77
2021/03/31 11:14:10;;;;;;;;;;;;;;;32.41;21.65;102162.81;5111471;28;19919;-76
2021/03/31 11:16:35;;;;;;;;;;;;;;;31.74;22.24;102152.56;5111648;28;19926;-75
2021/03/31 11:26:59;;;;;;;;;;;;;;;32.58;22.15;102148.72;5092257;28;19918;-76
2021/03/31 11:29:24;;;;;;;;;;;;;;;31.65;21.99;102139.66;5092421;28;20296;-76
2021/03/31 11:31:50;;;;;;;;;;;;;;;30.95;19.67;102141.69;5105020;28;19915;-76
2021/03/31 11:34:15;;;;;;;;;;;;;;;31.24;19.96;102139.66;5109295;28;19994;-77
2021/03/31 11:36:40;;;;;;;;;;;;;;;30.79;22.41;102137.06;5090435;28;20273;-77
2021/03/31 11:39:05;;;;;;;;;;;;;;;30.30;23.67;102139.81;5092119;28;19912;-77
2021/03/31 11:41:31;;;;;;;;;;;;;;;30.27;22.92;102132.00;5091662;28;19916;-76
2021/03/31 11:43:56;;;;;;;;;;;;;;;29.67;22.00;102133.28;5089593;28;19912;-76
2021/03/31 11:46:21;;;;;;;;;;;;;;;29.06;22.04;102130.06;5086446;28;19966;-77
2021/03/31 11:51:12;;;;;;;;;;;;;;;28.61;24.60;102129.72;5071738;22;19986;-71
2021/03/31 11:53:37;;;;;;;;;;;;;;;26.76;25.12;102132.94;5052553;28;19962;-72
2021/03/31 11:56:02;;;;;;;;;;;;;;;26.70;25.34;102128.66;5053838;28;19913;-73
2021/03/31 11:58:27;;;;;;;;;;;;;;;27.04;27.03;102131.41;5036434;28;21189;-74
2021/03/31 12:00:53;;;;;;;;;;;;;;;27.08;26.64;102125.16;5071768;28;19919;-74
2021/03/31 12:03:19;;;;;;;;;;;;;;;26.99;25.47;102120.06;5074166;28;19912;-74
2021/03/31 12:05:44;;;;;;;;;;;;;;;26.78;24.66;102117.94;5083862;28;20376;-72
2021/03/31 12:08:09;;;;;;;;;;;;;;;26.92;25.82;102114.06;5080812;28;19923;-72
2021/03/31 12:10:35;;;;;;;;;;;;;;;26.83;26.22;102116.06;5058933;28;19916;-73
2021/03/31 12:13:00;;;;;;;;;;;;;;;26.47;24.57;102120.41;5071858;28;19959;-73
2021/03/31 12:15:25;;;;;;;;;;;;;;;26.22;22.65;102112.13;5071785;28;20015;-74
2021/03/31 12:17:50;;;;;;;;;;;;;;;25.99;26.31;102117.84;5071618;28;19966;-72
2021/03/31 12:20:16;;;;;;;;;;;;;;;25.79;27.18;102113.00;5082046;28;19934;-72
2021/03/31 12:22:42;;;;;;;;;;;;;;;25.74;22.32;102112.22;5073011;28;20291;-74
2021/03/31 12:25:08;;;;;;;;;;;;;;;25.81;24.49;102110.34;5070507;28;19911;-72
2021/03/31 12:27:34;;;;;;;;;;;;;;;25.75;28.79;102106.06;5088873;28;19912;-74
2021/03/31 12:30:00;;;;;;;;;;;;;;;25.73;27.52;102108.72;5057060;28;19920;-75
2021/03/31 12:32:25;;;;;;;;;;;;;;;25.48;29.01;102103.91;5071267;28;19939;-72
2021/03/31 12:34:52;;;;;;;;;;;;;;;25.23;23.89;102106.09;5071400;28;19913;-71
2021/03/31 12:37:17;;;;;;;;;;;;;;;24.80;26.20;102105.00;5072916;28;19947;-74
2021/03/31 12:39:43;;;;;;;;;;;;;;;24.97;29.18;102111.75;5079754;28;19954;-74
2021/03/31 12:42:08;;;;;;;;;;;;;;;24.85;25.10;102101.44;5079817;28;19912;-72
2021/03/31 12:44:33;;;;;;;;;;;;;;;24.49;23.13;102103.72;5082220;28;19919;-73
2021/03/31 12:46:59;;;;;;;;;;;;;;;24.49;26.50;102104.59;5073459;28;19954;-72
2021/03/31 12:49:24;;;;;;;;;;;;;;;24.68;30.06;102097.28;5067689;28;19912;-73
2021/03/31 12:51:57;;;;;;;;;;;;;;;24.59;25.83;102100.06;5070516;28;20393;-73
2021/03/31 12:56:47;;;;;;;;;;;;;;;24.57;28.35;102086.06;5084112;28;19920;-72
2021/03/31 12:59:13;;;;;;;;;;;;;;;24.49;28.41;102085.31;5083862;28;20305;-72
2021/03/31 13:01:38;;;;;;;;;;;;;;;24.42;26.96;102078.44;5082659;28;19919;-74
2021/03/31 13:04:04;;;;;;;;;;;;;;;24.41;25.42;102076.69;5063029;28;20006;-73